Weather

BOSCOMBE DOWN (EGDM)

METAR

EGDM 280550Z AUTO 17005KT 9999 FEW039/// 08/06 Q1001

TAF

TAF EGDM 211948Z 2121/2212 23015G25KT 9999 BKN020 TEMPO 2121/2201 BKN012 BECMG 2201/2203 BKN010 PROB30 TEMPO 2201/2208 24020G35KT PROB40 TEMPO 2202/2210 3000 -RADZ BKN006 BECMG 2209/2211 SCT025 TEMPO 2211/2212 SCT015

BRISTOL AIRPORT (EGGD)

METAR

EGGD 280620Z AUTO 21009KT 9999 FEW040 BKN046 07/06 Q0999

TAF

TAF EGGD 280506Z 2806/2906 23013KT 9999 SCT025 TEMPO 2806/2904 26017G27KT 6000 SHRA BKN020TCU PROB30 TEMPO 2806/2818 2000 +SHRA TSGS BKN008 BKN013CB PROB30 TEMPO 2818/2824 4000 +SHRA BKN013CB TEMPO 2904/2906 6000 RA BKN012 PROB30 TEMPO 2904/2906 4000 RADZ BKN007

BRIZE NORTON (EGVN)

METAR

EGVN 280620Z 22006KT CAVOK 08/05 Q0999 TEMPO 5000 SHRA

TAF

TAF EGVN 280427Z 2806/2906 22006KT 9999 FEW040 TEMPO 2806/2820 5000 SHRA SCT020 PROB40 TEMPO 2812/2820 24015G25KT 4000 +SHRA BKN018CB

OXFORD (EGTK)

METAR

EGTK 280620Z 22010KT 9999 FEW030 07/05 Q0999

Pressure charts

Click to see pressure charts
(redidrection to MetOffice website)